sensor_id;sensor_type;location;lat;lon;timestamp;P1;durP1;ratioP1;P2;durP2;ratioP2
20888;SDS011;10604;51.976;7.594;2022-09-12T00:02:13;12.43;;;11.27;;
20888;SDS011;10604;51.976;7.594;2022-09-12T00:04:38;12.80;;;11.60;;
20888;SDS011;10604;51.976;7.594;2022-09-12T00:07:04;13.80;;;12.50;;
20888;SDS011;10604;51.976;7.594;2022-09-12T00:09:29;13.80;;;12.48;;
20888;SDS011;10604;51.976;7.594;2022-09-12T00:11:54;13.50;;;12.20;;
20888;SDS011;10604;51.976;7.594;2022-09-12T00:14:20;14.10;;;12.70;;
20888;SDS011;10604;51.976;7.594;2022-09-12T00:16:45;13.77;;;12.37;;
20888;SDS011;10604;51.976;7.594;2022-09-12T00:19:11;13.97;;;12.50;;
20888;SDS011;10604;51.976;7.594;2022-09-12T00:21:37;14.35;;;12.98;;
20888;SDS011;10604;51.976;7.594;2022-09-12T00:24:03;12.98;;;11.38;;
20888;SDS011;10604;51.976;7.594;2022-09-12T00:26:29;13.77;;;12.37;;
20888;SDS011;10604;51.976;7.594;2022-09-12T00:28:55;13.43;;;12.03;;
20888;SDS011;10604;51.976;7.594;2022-09-12T00:31:22;13.07;;;11.68;;
20888;SDS011;10604;51.976;7.594;2022-09-12T00:33:48;14.07;;;12.60;;
20888;SDS011;10604;51.976;7.594;2022-09-12T00:36:15;12.45;;;11.25;;
20888;SDS011;10604;51.976;7.594;2022-09-12T00:38:42;12.52;;;11.32;;
20888;SDS011;10604;51.976;7.594;2022-09-12T00:43:58;11.80;;;10.70;;
20888;SDS011;10604;51.976;7.594;2022-09-12T00:49:14;12.05;;;10.85;;
20888;SDS011;10604;51.976;7.594;2022-09-12T00:52:09;12.57;;;11.27;;
20888;SDS011;10604;51.976;7.594;2022-09-12T00:54:46;12.10;;;10.80;;
20888;SDS011;10604;51.976;7.594;2022-09-12T00:57:13;12.33;;;11.13;;
20888;SDS011;10604;51.976;7.594;2022-09-12T00:59:42;12.57;;;11.27;;
20888;SDS011;10604;51.976;7.594;2022-09-12T01:02:10;13.77;;;12.23;;
20888;SDS011;10604;51.976;7.594;2022-09-12T01:04:36;12.73;;;11.52;;
20888;SDS011;10604;51.976;7.594;2022-09-12T01:07:03;14.40;;;12.32;;
20888;SDS011;10604;51.976;7.594;2022-09-12T01:09:30;14.43;;;13.02;;
20888;SDS011;10604;51.976;7.594;2022-09-12T01:11:56;13.17;;;11.83;;
20888;SDS011;10604;51.976;7.594;2022-09-12T01:14:23;15.15;;;13.50;;
20888;SDS011;10604;51.976;7.594;2022-09-12T01:16:48;14.50;;;13.00;;
20888;SDS011;10604;51.976;7.594;2022-09-12T01:19:24;14.63;;;13.10;;
20888;SDS011;10604;51.976;7.594;2022-09-12T01:22:06;17.13;;;15.33;;
20888;SDS011;10604;51.976;7.594;2022-09-12T01:36:40;16.08;;;14.38;;
20888;SDS011;10604;51.976;7.594;2022-09-12T01:42:19;17.02;;;15.32;;
20888;SDS011;10604;51.976;7.594;2022-09-12T01:47:40;17.23;;;15.40;;
20888;SDS011;10604;51.976;7.594;2022-09-12T01:50:09;16.33;;;14.63;;
20888;SDS011;10604;51.976;7.594;2022-09-12T01:52:49;16.00;;;14.30;;
20888;SDS011;10604;51.976;7.594;2022-09-12T01:55:19;16.33;;;14.68;;
20888;SDS011;10604;51.976;7.594;2022-09-12T02:00:54;17.25;;;15.48;;
20888;SDS011;10604;51.976;7.594;2022-09-12T02:06:35;17.42;;;15.63;;
20888;SDS011;10604;51.976;7.594;2022-09-12T02:09:02;15.90;;;14.20;;
20888;SDS011;10604;51.976;7.594;2022-09-12T02:11:33;17.45;;;15.20;;
20888;SDS011;10604;51.976;7.594;2022-09-12T02:14:14;16.77;;;14.98;;
20888;SDS011;10604;51.976;7.594;2022-09-12T02:16:47;15.88;;;14.23;;
20888;SDS011;10604;51.976;7.594;2022-09-12T02:19:17;15.18;;;13.68;;
20888;SDS011;10604;51.976;7.594;2022-09-12T02:21:51;16.10;;;14.50;;
20888;SDS011;10604;51.976;7.594;2022-09-12T02:24:19;16.37;;;14.67;;
20888;SDS011;10604;51.976;7.594;2022-09-12T02:26:55;13.70;;;12.30;;
20888;SDS011;10604;51.976;7.594;2022-09-12T02:29:25;14.60;;;13.00;;
20888;SDS011;10604;51.976;7.594;2022-09-12T02:31:53;14.55;;;13.05;;
20888;SDS011;10604;51.976;7.594;2022-09-12T02:34:27;14.65;;;13.23;;
20888;SDS011;10604;51.976;7.594;2022-09-12T02:38:19;15.02;;;13.52;;
20888;SDS011;10604;51.976;7.594;2022-09-12T02:40:29;14.47;;;13.07;;
20888;SDS011;10604;51.976;7.594;2022-09-12T02:42:55;15.05;;;13.45;;
20888;SDS011;10604;51.976;7.594;2022-09-12T02:45:21;14.73;;;13.23;;
20888;SDS011;10604;51.976;7.594;2022-09-12T02:47:48;14.07;;;12.57;;
20888;SDS011;10604;51.976;7.594;2022-09-12T02:50:18;13.98;;;12.57;;
20888;SDS011;10604;51.976;7.594;2022-09-12T02:52:44;13.43;;;12.02;;
20888;SDS011;10604;51.976;7.594;2022-09-12T02:55:11;13.52;;;12.18;;
20888;SDS011;10604;51.976;7.594;2022-09-12T02:57:38;13.38;;;12.07;;
20888;SDS011;10604;51.976;7.594;2022-09-12T03:00:04;13.10;;;11.80;;
20888;SDS011;10604;51.976;7.594;2022-09-12T03:02:33;13.82;;;12.43;;
20888;SDS011;10604;51.976;7.594;2022-09-12T03:16:31;14.45;;;12.48;;
20888;SDS011;10604;51.976;7.594;2022-09-12T03:22:04;13.82;;;12.38;;
20888;SDS011;10604;51.976;7.594;2022-09-12T03:24:36;13.80;;;12.40;;
20888;SDS011;10604;51.976;7.594;2022-09-12T03:27:16;14.48;;;12.65;;
20888;SDS011;10604;51.976;7.594;2022-09-12T03:29:46;15.20;;;13.63;;
20888;SDS011;10604;51.976;7.594;2022-09-12T03:32:13;14.90;;;13.50;;
20888;SDS011;10604;51.976;7.594;2022-09-12T03:34:39;13.93;;;12.48;;
20888;SDS011;10604;51.976;7.594;2022-09-12T03:37:04;14.67;;;13.27;;
20888;SDS011;10604;51.976;7.594;2022-09-12T03:39:30;14.47;;;13.07;;
20888;SDS011;10604;51.976;7.594;2022-09-12T03:41:55;14.93;;;13.43;;
20888;SDS011;10604;51.976;7.594;2022-09-12T03:44:21;14.93;;;13.43;;
20888;SDS011;10604;51.976;7.594;2022-09-12T03:46:47;14.07;;;12.77;;
20888;SDS011;10604;51.976;7.594;2022-09-12T03:49:12;15.33;;;13.73;;
20888;SDS011;10604;51.976;7.594;2022-09-12T03:51:38;14.90;;;13.40;;
20888;SDS011;10604;51.976;7.594;2022-09-12T03:54:04;14.20;;;12.80;;
20888;SDS011;10604;51.976;7.594;2022-09-12T03:56:30;16.38;;;13.75;;
20888;SDS011;10604;51.976;7.594;2022-09-12T03:58:56;15.00;;;13.48;;
20888;SDS011;10604;51.976;7.594;2022-09-12T04:01:21;15.97;;;14.40;;
20888;SDS011;10604;51.976;7.594;2022-09-12T04:03:48;15.52;;;14.02;;
20888;SDS011;10604;51.976;7.594;2022-09-12T04:06:16;15.30;;;13.40;;
20888;SDS011;10604;51.976;7.594;2022-09-12T04:08:43;15.02;;;13.48;;
20888;SDS011;10604;51.976;7.594;2022-09-12T04:11:14;16.02;;;14.05;;
20888;SDS011;10604;51.976;7.594;2022-09-12T04:13:41;15.57;;;13.52;;
20888;SDS011;10604;51.976;7.594;2022-09-12T04:16:08;15.00;;;13.50;;
20888;SDS011;10604;51.976;7.594;2022-09-12T04:18:34;15.23;;;13.77;;
20888;SDS011;10604;51.976;7.594;2022-09-12T04:21:03;14.55;;;13.05;;
20888;SDS011;10604;51.976;7.594;2022-09-12T04:23:31;14.13;;;12.73;;
20888;SDS011;10604;51.976;7.594;2022-09-12T04:25:57;14.37;;;12.97;;
20888;SDS011;10604;51.976;7.594;2022-09-12T04:28:24;15.00;;;13.48;;
20888;SDS011;10604;51.976;7.594;2022-09-12T04:30:50;14.00;;;12.60;;
20888;SDS011;10604;51.976;7.594;2022-09-12T04:33:15;14.13;;;12.77;;
20888;SDS011;10604;51.976;7.594;2022-09-12T04:35:41;13.02;;;11.90;;
20888;SDS011;10604;51.976;7.594;2022-09-12T04:38:07;14.20;;;12.70;;
20888;SDS011;10604;51.976;7.594;2022-09-12T04:40:33;14.43;;;13.05;;
20888;SDS011;10604;51.976;7.594;2022-09-12T04:42:58;14.02;;;12.63;;
20888;SDS011;10604;51.976;7.594;2022-09-12T04:45:24;14.33;;;13.03;;
20888;SDS011;10604;51.976;7.594;2022-09-12T04:47:49;13.80;;;12.45;;
20888;SDS011;10604;51.976;7.594;2022-09-12T04:50:15;13.23;;;11.93;;
20888;SDS011;10604;51.976;7.594;2022-09-12T04:52:40;11.47;;;10.43;;
20888;SDS011;10604;51.976;7.594;2022-09-12T04:55:06;11.55;;;10.55;;
20888;SDS011;10604;51.976;7.594;2022-09-12T04:57:32;11.93;;;10.82;;
20888;SDS011;10604;51.976;7.594;2022-09-12T04:59:59;12.10;;;10.90;;
20888;SDS011;10604;51.976;7.594;2022-09-12T05:02:25;11.90;;;10.80;;
20888;SDS011;10604;51.976;7.594;2022-09-12T05:04:50;12.23;;;11.10;;
20888;SDS011;10604;51.976;7.594;2022-09-12T05:07:16;12.93;;;11.70;;
20888;SDS011;10604;51.976;7.594;2022-09-12T05:09:43;12.55;;;11.35;;
20888;SDS011;10604;51.976;7.594;2022-09-12T05:12:08;13.27;;;11.98;;
20888;SDS011;10604;51.976;7.594;2022-09-12T05:14:34;13.50;;;12.30;;
20888;SDS011;10604;51.976;7.594;2022-09-12T05:16:59;13.43;;;12.13;;
20888;SDS011;10604;51.976;7.594;2022-09-12T05:19:26;14.23;;;12.82;;
20888;SDS011;10604;51.976;7.594;2022-09-12T05:21:52;15.02;;;13.60;;
20888;SDS011;10604;51.976;7.594;2022-09-12T05:24:18;14.13;;;12.82;;
20888;SDS011;10604;51.976;7.594;2022-09-12T05:26:43;14.57;;;13.17;;
20888;SDS011;10604;51.976;7.594;2022-09-12T05:29:08;16.23;;;14.63;;
20888;SDS011;10604;51.976;7.594;2022-09-12T05:31:34;16.17;;;14.60;;
20888;SDS011;10604;51.976;7.594;2022-09-12T05:33:59;16.13;;;14.63;;
20888;SDS011;10604;51.976;7.594;2022-09-12T05:36:26;16.93;;;15.33;;
20888;SDS011;10604;51.976;7.594;2022-09-12T05:38:53;17.02;;;15.43;;
20888;SDS011;10604;51.976;7.594;2022-09-12T05:41:20;18.17;;;16.33;;
20888;SDS011;10604;51.976;7.594;2022-09-12T05:43:53;16.43;;;14.90;;
20888;SDS011;10604;51.976;7.594;2022-09-12T05:46:20;17.40;;;15.70;;
20888;SDS011;10604;51.976;7.594;2022-09-12T05:48:48;16.10;;;14.50;;
20888;SDS011;10604;51.976;7.594;2022-09-12T05:54:05;16.52;;;14.75;;
20888;SDS011;10604;51.976;7.594;2022-09-12T05:56:32;16.58;;;15.00;;
20888;SDS011;10604;51.976;7.594;2022-09-12T05:59:03;17.77;;;15.98;;
20888;SDS011;10604;51.976;7.594;2022-09-12T06:01:31;17.60;;;15.80;;
20888;SDS011;10604;51.976;7.594;2022-09-12T06:03:58;37.40;;;32.50;;
20888;SDS011;10604;51.976;7.594;2022-09-12T06:06:26;51.90;;;44.70;;
20888;SDS011;10604;51.976;7.594;2022-09-12T06:08:55;31.98;;;28.48;;
20888;SDS011;10604;51.976;7.594;2022-09-12T06:11:24;30.10;;;27.10;;
20888;SDS011;10604;51.976;7.594;2022-09-12T06:13:51;24.50;;;22.10;;
20888;SDS011;10604;51.976;7.594;2022-09-12T06:16:18;20.73;;;18.83;;
20888;SDS011;10604;51.976;7.594;2022-09-12T06:18:49;20.40;;;18.50;;
20888;SDS011;10604;51.976;7.594;2022-09-12T06:21:16;22.20;;;20.10;;
20888;SDS011;10604;51.976;7.594;2022-09-12T06:23:42;20.43;;;18.53;;
20888;SDS011;10604;51.976;7.594;2022-09-12T06:26:10;20.30;;;18.40;;
20888;SDS011;10604;51.976;7.594;2022-09-12T06:28:37;18.00;;;16.15;;
20888;SDS011;10604;51.976;7.594;2022-09-12T06:31:08;17.70;;;15.98;;
20888;SDS011;10604;51.976;7.594;2022-09-12T06:33:36;17.35;;;15.63;;
20888;SDS011;10604;51.976;7.594;2022-09-12T06:38:32;16.75;;;15.05;;
20888;SDS011;10604;51.976;7.594;2022-09-12T06:40:58;16.50;;;14.80;;
20888;SDS011;10604;51.976;7.594;2022-09-12T06:43:24;15.98;;;14.48;;
20888;SDS011;10604;51.976;7.594;2022-09-12T06:45:50;15.93;;;14.30;;
20888;SDS011;10604;51.976;7.594;2022-09-12T06:48:16;15.43;;;13.93;;
20888;SDS011;10604;51.976;7.594;2022-09-12T06:50:41;14.70;;;13.20;;
20888;SDS011;10604;51.976;7.594;2022-09-12T06:53:07;14.50;;;13.05;;
20888;SDS011;10604;51.976;7.594;2022-09-12T06:55:32;14.60;;;13.30;;
20888;SDS011;10604;51.976;7.594;2022-09-12T06:57:58;13.77;;;12.48;;
20888;SDS011;10604;51.976;7.594;2022-09-12T07:00:24;13.53;;;12.23;;
20888;SDS011;10604;51.976;7.594;2022-09-12T07:02:52;13.65;;;12.20;;
20888;SDS011;10604;51.976;7.594;2022-09-12T07:05:20;12.93;;;11.52;;
20888;SDS011;10604;51.976;7.594;2022-09-12T07:07:46;13.40;;;12.20;;
20888;SDS011;10604;51.976;7.594;2022-09-12T07:10:12;12.63;;;11.32;;
20888;SDS011;10604;51.976;7.594;2022-09-12T07:12:39;13.00;;;11.70;;
20888;SDS011;10604;51.976;7.594;2022-09-12T07:15:04;12.40;;;11.07;;
20888;SDS011;10604;51.976;7.594;2022-09-12T07:17:30;12.52;;;11.30;;
20888;SDS011;10604;51.976;7.594;2022-09-12T07:19:55;11.90;;;10.70;;
20888;SDS011;10604;51.976;7.594;2022-09-12T07:22:21;10.80;;;9.80;;
20888;SDS011;10604;51.976;7.594;2022-09-12T07:24:46;10.98;;;9.98;;
20888;SDS011;10604;51.976;7.594;2022-09-12T07:27:11;11.13;;;10.03;;
20888;SDS011;10604;51.976;7.594;2022-09-12T07:29:37;11.57;;;10.43;;
20888;SDS011;10604;51.976;7.594;2022-09-12T07:32:02;12.13;;;10.48;;
20888;SDS011;10604;51.976;7.594;2022-09-12T07:34:30;10.98;;;9.98;;
20888;SDS011;10604;51.976;7.594;2022-09-12T07:36:55;11.38;;;9.85;;
20888;SDS011;10604;51.976;7.594;2022-09-12T07:39:21;10.87;;;9.87;;
20888;SDS011;10604;51.976;7.594;2022-09-12T07:41:46;10.67;;;9.60;;
20888;SDS011;10604;51.976;7.594;2022-09-12T07:44:11;11.40;;;10.30;;
20888;SDS011;10604;51.976;7.594;2022-09-12T07:46:37;11.30;;;9.43;;
20888;SDS011;10604;51.976;7.594;2022-09-12T07:49:03;11.07;;;10.00;;
20888;SDS011;10604;51.976;7.594;2022-09-12T07:51:29;10.68;;;9.57;;
20888;SDS011;10604;51.976;7.594;2022-09-12T07:53:55;11.25;;;10.15;;
20888;SDS011;10604;51.976;7.594;2022-09-12T07:56:21;10.70;;;9.67;;
20888;SDS011;10604;51.976;7.594;2022-09-12T07:58:47;10.80;;;9.80;;
20888;SDS011;10604;51.976;7.594;2022-09-12T08:01:16;10.43;;;9.37;;
20888;SDS011;10604;51.976;7.594;2022-09-12T08:03:47;11.27;;;10.15;;
20888;SDS011;10604;51.976;7.594;2022-09-12T08:06:15;10.52;;;9.52;;
20888;SDS011;10604;51.976;7.594;2022-09-12T08:08:45;11.32;;;10.20;;
20888;SDS011;10604;51.976;7.594;2022-09-12T08:11:11;10.73;;;9.70;;
20888;SDS011;10604;51.976;7.594;2022-09-12T08:13:38;10.55;;;9.45;;
20888;SDS011;10604;51.976;7.594;2022-09-12T08:16:13;10.73;;;9.63;;
20888;SDS011;10604;51.976;7.594;2022-09-12T08:18:40;10.73;;;9.65;;
20888;SDS011;10604;51.976;7.594;2022-09-12T08:21:11;10.27;;;9.23;;
20888;SDS011;10604;51.976;7.594;2022-09-12T08:24:02;10.20;;;9.13;;
20888;SDS011;10604;51.976;7.594;2022-09-12T08:26:30;10.90;;;9.80;;
20888;SDS011;10604;51.976;7.594;2022-09-12T08:28:57;10.43;;;9.35;;
20888;SDS011;10604;51.976;7.594;2022-09-12T08:31:23;10.80;;;9.70;;
20888;SDS011;10604;51.976;7.594;2022-09-12T08:33:50;10.63;;;9.57;;
20888;SDS011;10604;51.976;7.594;2022-09-12T08:36:19;10.33;;;9.27;;
20888;SDS011;10604;51.976;7.594;2022-09-12T08:38:48;9.70;;;8.70;;
20888;SDS011;10604;51.976;7.594;2022-09-12T08:41:29;10.40;;;9.00;;
20888;SDS011;10604;51.976;7.594;2022-09-12T08:51:59;10.13;;;9.13;;
20888;SDS011;10604;51.976;7.594;2022-09-12T08:54:31;10.63;;;9.07;;
20888;SDS011;10604;51.976;7.594;2022-09-12T08:57:01;9.77;;;8.70;;
20888;SDS011;10604;51.976;7.594;2022-09-12T08:59:34;10.30;;;9.20;;
20888;SDS011;10604;51.976;7.594;2022-09-12T09:02:03;9.73;;;8.82;;
20888;SDS011;10604;51.976;7.594;2022-09-12T09:07:45;9.80;;;8.80;;
20888;SDS011;10604;51.976;7.594;2022-09-12T09:19:01;9.88;;;8.38;;
20888;SDS011;10604;51.976;7.594;2022-09-12T09:21:34;10.32;;;9.25;;
20888;SDS011;10604;51.976;7.594;2022-09-12T09:24:05;9.95;;;8.90;;
20888;SDS011;10604;51.976;7.594;2022-09-12T09:29:48;10.93;;;9.32;;
20888;SDS011;10604;51.976;7.594;2022-09-12T09:32:18;9.85;;;8.95;;
20888;SDS011;10604;51.976;7.594;2022-09-12T09:34:55;10.88;;;9.77;;
20888;SDS011;10604;51.976;7.594;2022-09-12T09:43:05;9.32;;;8.07;;
20888;SDS011;10604;51.976;7.594;2022-09-12T09:45:40;10.35;;;9.13;;
20888;SDS011;10604;51.976;7.594;2022-09-12T09:50:34;10.27;;;8.85;;
20888;SDS011;10604;51.976;7.594;2022-09-12T09:53:01;9.98;;;8.50;;
20888;SDS011;10604;51.976;7.594;2022-09-12T09:55:29;9.55;;;8.57;;
20888;SDS011;10604;51.976;7.594;2022-09-12T09:58:02;9.82;;;8.82;;
20888;SDS011;10604;51.976;7.594;2022-09-12T10:05:49;11.95;;;8.65;;
20888;SDS011;10604;51.976;7.594;2022-09-12T10:10:58;10.48;;;9.15;;
20888;SDS011;10604;51.976;7.594;2022-09-12T10:13:31;10.23;;;8.73;;
20888;SDS011;10604;51.976;7.594;2022-09-12T10:16:01;10.52;;;9.43;;
20888;SDS011;10604;51.976;7.594;2022-09-12T10:18:33;11.20;;;10.00;;
20888;SDS011;10604;51.976;7.594;2022-09-12T10:24:03;11.18;;;8.65;;
20888;SDS011;10604;51.976;7.594;2022-09-12T10:26:52;10.80;;;8.90;;
20888;SDS011;10604;51.976;7.594;2022-09-12T10:29:24;12.23;;;9.57;;
20888;SDS011;10604;51.976;7.594;2022-09-12T10:31:56;11.18;;;10.02;;
20888;SDS011;10604;51.976;7.594;2022-09-12T10:34:30;12.20;;;10.45;;
20888;SDS011;10604;51.976;7.594;2022-09-12T10:37:04;11.90;;;9.93;;
20888;SDS011;10604;51.976;7.594;2022-09-12T10:39:32;11.05;;;9.93;;
20888;SDS011;10604;51.976;7.594;2022-09-12T10:42:00;10.57;;;9.25;;
20888;SDS011;10604;51.976;7.594;2022-09-12T10:44:27;11.07;;;9.88;;
20888;SDS011;10604;51.976;7.594;2022-09-12T10:46:57;10.80;;;9.70;;
20888;SDS011;10604;51.976;7.594;2022-09-12T10:51:54;12.27;;;11.07;;
20888;SDS011;10604;51.976;7.594;2022-09-12T10:54:23;11.85;;;8.65;;
20888;SDS011;10604;51.976;7.594;2022-09-12T11:00:03;9.93;;;8.95;;
20888;SDS011;10604;51.976;7.594;2022-09-12T11:10:25;8.77;;;7.70;;
20888;SDS011;10604;51.976;7.594;2022-09-12T11:15:58;7.85;;;6.80;;
20888;SDS011;10604;51.976;7.594;2022-09-12T11:40:47;5.75;;;4.82;;
20888;SDS011;10604;51.976;7.594;2022-09-12T11:45:55;8.07;;;5.18;;
20888;SDS011;10604;51.976;7.594;2022-09-12T11:50:59;6.78;;;5.07;;
20888;SDS011;10604;51.976;7.594;2022-09-12T11:53:30;5.05;;;4.32;;
20888;SDS011;10604;51.976;7.594;2022-09-12T11:56:07;5.40;;;4.90;;
20888;SDS011;10604;51.976;7.594;2022-09-12T11:58:39;6.35;;;4.60;;
20888;SDS011;10604;51.976;7.594;2022-09-12T12:01:16;5.97;;;4.03;;
20888;SDS011;10604;51.976;7.594;2022-09-12T12:03:47;5.80;;;4.00;;
20888;SDS011;10604;51.976;7.594;2022-09-12T12:06:18;7.25;;;5.72;;
20888;SDS011;10604;51.976;7.594;2022-09-12T12:08:47;11.27;;;6.22;;
20888;SDS011;10604;51.976;7.594;2022-09-12T12:11:22;9.18;;;7.30;;
20888;SDS011;10604;51.976;7.594;2022-09-12T12:16:38;6.53;;;5.32;;
20888;SDS011;10604;51.976;7.594;2022-09-12T12:19:55;6.80;;;5.30;;
20888;SDS011;10604;51.976;7.594;2022-09-12T12:21:55;4.75;;;4.22;;
20888;SDS011;10604;51.976;7.594;2022-09-12T12:24:30;5.30;;;4.80;;
20888;SDS011;10604;51.976;7.594;2022-09-12T12:34:28;4.97;;;3.40;;
20888;SDS011;10604;51.976;7.594;2022-09-12T12:36:56;3.75;;;3.38;;
20888;SDS011;10604;51.976;7.594;2022-09-12T12:41:57;5.05;;;3.58;;
20888;SDS011;10604;51.976;7.594;2022-09-12T12:52:22;5.03;;;3.30;;
20888;SDS011;10604;51.976;7.594;2022-09-12T12:54:50;4.10;;;3.50;;
20888;SDS011;10604;51.976;7.594;2022-09-12T12:58:01;4.78;;;3.70;;
20888;SDS011;10604;51.976;7.594;2022-09-12T13:05:24;4.50;;;3.30;;
20888;SDS011;10604;51.976;7.594;2022-09-12T13:07:55;3.80;;;3.50;;
20888;SDS011;10604;51.976;7.594;2022-09-12T13:10:26;5.60;;;3.05;;
20888;SDS011;10604;51.976;7.594;2022-09-12T13:12:58;5.50;;;3.77;;
20888;SDS011;10604;51.976;7.594;2022-09-12T13:21:19;3.55;;;3.25;;
20888;SDS011;10604;51.976;7.594;2022-09-12T13:24:02;3.80;;;3.10;;
20888;SDS011;10604;51.976;7.594;2022-09-12T13:26:34;4.23;;;3.37;;
20888;SDS011;10604;51.976;7.594;2022-09-12T13:29:11;4.20;;;3.27;;
20888;SDS011;10604;51.976;7.594;2022-09-12T13:31:39;4.22;;;3.22;;
20888;SDS011;10604;51.976;7.594;2022-09-12T13:34:06;4.22;;;3.15;;
20888;SDS011;10604;51.976;7.594;2022-09-12T13:36:54;4.43;;;3.47;;
20888;SDS011;10604;51.976;7.594;2022-09-12T13:44:50;4.53;;;2.65;;
20888;SDS011;10604;51.976;7.594;2022-09-12T13:47:30;3.10;;;2.67;;
20888;SDS011;10604;51.976;7.594;2022-09-12T13:50:21;3.65;;;2.92;;
20888;SDS011;10604;51.976;7.594;2022-09-12T13:52:52;5.07;;;2.60;;
20888;SDS011;10604;51.976;7.594;2022-09-12T13:55:38;3.08;;;2.70;;
20888;SDS011;10604;51.976;7.594;2022-09-12T13:58:14;3.25;;;2.65;;
20888;SDS011;10604;51.976;7.594;2022-09-12T14:01:00;3.38;;;2.60;;
20888;SDS011;10604;51.976;7.594;2022-09-12T14:03:27;3.22;;;2.70;;
20888;SDS011;10604;51.976;7.594;2022-09-12T14:06:16;2.92;;;2.63;;
20888;SDS011;10604;51.976;7.594;2022-09-12T14:08:43;3.00;;;2.60;;
20888;SDS011;10604;51.976;7.594;2022-09-12T14:11:14;3.10;;;2.80;;
20888;SDS011;10604;51.976;7.594;2022-09-12T14:13:47;2.80;;;2.42;;
20888;SDS011;10604;51.976;7.594;2022-09-12T14:16:14;4.00;;;2.57;;
20888;SDS011;10604;51.976;7.594;2022-09-12T14:18:40;2.83;;;2.47;;
20888;SDS011;10604;51.976;7.594;2022-09-12T14:21:09;3.97;;;2.40;;
20888;SDS011;10604;51.976;7.594;2022-09-12T14:23:40;4.30;;;2.30;;
20888;SDS011;10604;51.976;7.594;2022-09-12T14:26:08;3.90;;;2.80;;
20888;SDS011;10604;51.976;7.594;2022-09-12T14:28:38;3.30;;;2.90;;
20888;SDS011;10604;51.976;7.594;2022-09-12T14:31:08;4.55;;;2.80;;
20888;SDS011;10604;51.976;7.594;2022-09-12T14:33:49;4.90;;;2.80;;
20888;SDS011;10604;51.976;7.594;2022-09-12T14:36:17;3.30;;;2.73;;
20888;SDS011;10604;51.976;7.594;2022-09-12T14:38:57;3.00;;;2.70;;
20888;SDS011;10604;51.976;7.594;2022-09-12T14:41:27;4.23;;;2.67;;
20888;SDS011;10604;51.976;7.594;2022-09-12T14:43:57;3.00;;;2.63;;
20888;SDS011;10604;51.976;7.594;2022-09-12T14:46:34;4.22;;;2.47;;
20888;SDS011;10604;51.976;7.594;2022-09-12T14:51:58;2.63;;;2.40;;
20888;SDS011;10604;51.976;7.594;2022-09-12T14:56:52;4.90;;;2.77;;
20888;SDS011;10604;51.976;7.594;2022-09-12T15:07:31;3.03;;;2.72;;
20888;SDS011;10604;51.976;7.594;2022-09-12T15:10:04;3.22;;;2.60;;
20888;SDS011;10604;51.976;7.594;2022-09-12T15:12:35;3.00;;;2.70;;
20888;SDS011;10604;51.976;7.594;2022-09-12T15:15:05;5.35;;;2.42;;
20888;SDS011;10604;51.976;7.594;2022-09-12T15:17:37;6.03;;;2.92;;
20888;SDS011;10604;51.976;7.594;2022-09-12T15:20:03;3.80;;;2.50;;
20888;SDS011;10604;51.976;7.594;2022-09-12T15:22:29;4.10;;;2.70;;
20888;SDS011;10604;51.976;7.594;2022-09-12T15:24:57;3.17;;;2.75;;
20888;SDS011;10604;51.976;7.594;2022-09-12T15:27:22;3.97;;;2.50;;
20888;SDS011;10604;51.976;7.594;2022-09-12T15:29:50;3.25;;;2.53;;
20888;SDS011;10604;51.976;7.594;2022-09-12T15:32:21;4.23;;;2.63;;
20888;SDS011;10604;51.976;7.594;2022-09-12T15:34:48;3.80;;;2.60;;
20888;SDS011;10604;51.976;7.594;2022-09-12T15:37:13;3.10;;;2.70;;
20888;SDS011;10604;51.976;7.594;2022-09-12T15:39:39;3.80;;;2.72;;
20888;SDS011;10604;51.976;7.594;2022-09-12T15:42:05;4.13;;;2.60;;
20888;SDS011;10604;51.976;7.594;2022-09-12T15:44:30;3.00;;;2.70;;
20888;SDS011;10604;51.976;7.594;2022-09-12T15:46:56;4.10;;;2.40;;
20888;SDS011;10604;51.976;7.594;2022-09-12T15:49:21;6.33;;;2.57;;
20888;SDS011;10604;51.976;7.594;2022-09-12T15:51:47;4.13;;;2.60;;
20888;SDS011;10604;51.976;7.594;2022-09-12T15:54:12;2.80;;;2.47;;
20888;SDS011;10604;51.976;7.594;2022-09-12T15:56:39;3.50;;;2.50;;
20888;SDS011;10604;51.976;7.594;2022-09-12T15:59:04;3.22;;;2.50;;
20888;SDS011;10604;51.976;7.594;2022-09-12T16:01:30;3.17;;;2.53;;
20888;SDS011;10604;51.976;7.594;2022-09-12T16:03:55;4.15;;;2.70;;
20888;SDS011;10604;51.976;7.594;2022-09-12T16:06:21;3.55;;;2.80;;
20888;SDS011;10604;51.976;7.594;2022-09-12T16:08:47;3.50;;;2.67;;
20888;SDS011;10604;51.976;7.594;2022-09-12T16:11:17;3.85;;;2.63;;
20888;SDS011;10604;51.976;7.594;2022-09-12T16:13:45;3.95;;;2.67;;
20888;SDS011;10604;51.976;7.594;2022-09-12T16:16:11;3.37;;;2.50;;
20888;SDS011;10604;51.976;7.594;2022-09-12T16:18:38;3.25;;;2.95;;
20888;SDS011;10604;51.976;7.594;2022-09-12T16:21:04;2.70;;;2.47;;
20888;SDS011;10604;51.976;7.594;2022-09-12T16:23:29;3.97;;;2.80;;
20888;SDS011;10604;51.976;7.594;2022-09-12T16:25:58;3.00;;;2.70;;
20888;SDS011;10604;51.976;7.594;2022-09-12T16:28:25;2.90;;;2.60;;
20888;SDS011;10604;51.976;7.594;2022-09-12T16:30:54;3.28;;;2.90;;
20888;SDS011;10604;51.976;7.594;2022-09-12T16:33:27;2.75;;;2.55;;
20888;SDS011;10604;51.976;7.594;2022-09-12T16:36:04;3.73;;;2.60;;
20888;SDS011;10604;51.976;7.594;2022-09-12T16:38:30;3.20;;;2.90;;
20888;SDS011;10604;51.976;7.594;2022-09-12T16:41:05;4.80;;;2.90;;
20888;SDS011;10604;51.976;7.594;2022-09-12T16:43:31;8.10;;;7.30;;
20888;SDS011;10604;51.976;7.594;2022-09-12T16:48:26;5.22;;;3.40;;
20888;SDS011;10604;51.976;7.594;2022-09-12T16:50:59;3.37;;;3.00;;
20888;SDS011;10604;51.976;7.594;2022-09-12T16:53:30;3.53;;;3.22;;
20888;SDS011;10604;51.976;7.594;2022-09-12T16:55:57;4.43;;;3.22;;
20888;SDS011;10604;51.976;7.594;2022-09-12T16:58:22;6.43;;;3.30;;
20888;SDS011;10604;51.976;7.594;2022-09-12T17:00:47;5.17;;;3.07;;
20888;SDS011;10604;51.976;7.594;2022-09-12T17:03:13;4.37;;;3.13;;
20888;SDS011;10604;51.976;7.594;2022-09-12T17:05:40;3.90;;;3.22;;
20888;SDS011;10604;51.976;7.594;2022-09-12T17:08:06;4.05;;;3.15;;
20888;SDS011;10604;51.976;7.594;2022-09-12T17:10:32;3.20;;;2.90;;
20888;SDS011;10604;51.976;7.594;2022-09-12T17:12:58;3.40;;;3.10;;
20888;SDS011;10604;51.976;7.594;2022-09-12T17:15:23;5.10;;;3.45;;
20888;SDS011;10604;51.976;7.594;2022-09-12T17:17:49;5.07;;;3.37;;
20888;SDS011;10604;51.976;7.594;2022-09-12T17:20:16;4.47;;;2.92;;
20888;SDS011;10604;51.976;7.594;2022-09-12T17:22:42;3.80;;;3.50;;
20888;SDS011;10604;51.976;7.594;2022-09-12T17:25:07;3.50;;;3.20;;
20888;SDS011;10604;51.976;7.594;2022-09-12T17:27:33;3.53;;;3.20;;
20888;SDS011;10604;51.976;7.594;2022-09-12T17:29:58;4.00;;;3.60;;
20888;SDS011;10604;51.976;7.594;2022-09-12T17:32:23;3.50;;;3.20;;
20888;SDS011;10604;51.976;7.594;2022-09-12T17:34:49;4.30;;;3.20;;
20888;SDS011;10604;51.976;7.594;2022-09-12T17:37:14;3.65;;;3.30;;
20888;SDS011;10604;51.976;7.594;2022-09-12T17:39:39;3.83;;;3.20;;
20888;SDS011;10604;51.976;7.594;2022-09-12T17:42:05;3.80;;;3.47;;
20888;SDS011;10604;51.976;7.594;2022-09-12T17:44:32;3.90;;;3.58;;
20888;SDS011;10604;51.976;7.594;2022-09-12T17:46:58;4.72;;;3.65;;
20888;SDS011;10604;51.976;7.594;2022-09-12T17:49:23;4.10;;;3.70;;
20888;SDS011;10604;51.976;7.594;2022-09-12T17:51:49;3.88;;;3.53;;
20888;SDS011;10604;51.976;7.594;2022-09-12T17:54:16;4.03;;;3.72;;